createdAt,value
2024-01-22T00:00:38.767Z,7.35
2024-01-22T00:02:00.909Z,7.00
2024-01-22T00:03:03.698Z,6.47
2024-01-22T00:04:06.171Z,8.40
2024-01-22T00:05:10.606Z,9.77
2024-01-22T00:06:12.835Z,7.15
2024-01-22T00:07:15.412Z,9.43
2024-01-22T00:08:17.441Z,6.10
2024-01-22T00:09:20.173Z,8.18
2024-01-22T00:10:22.283Z,6.72
2024-01-22T00:11:25.041Z,9.13
2024-01-22T00:12:27.101Z,5.50
2024-01-22T00:13:29.138Z,7.80
2024-01-22T00:14:31.157Z,8.15
2024-01-22T00:15:33.737Z,5.20
2024-01-22T00:16:39.700Z,6.30
2024-01-22T00:17:42.355Z,4.75
2024-01-22T00:18:44.451Z,7.75
2024-01-22T00:19:47.461Z,7.28
2024-01-22T00:20:49.566Z,6.30
2024-01-22T00:21:51.629Z,6.35
2024-01-22T00:22:53.695Z,7.20
2024-01-22T00:23:58.005Z,5.45
2024-01-22T00:25:00.095Z,8.73
2024-01-22T00:26:02.220Z,7.22
2024-01-22T00:27:04.655Z,7.07
2024-01-22T00:28:07.636Z,6.30
2024-01-22T00:29:09.814Z,8.80
2024-01-22T00:30:12.470Z,6.03
2024-01-22T00:31:14.599Z,7.25
2024-01-22T00:32:17.021Z,6.05
2024-01-22T00:33:19.202Z,12.93
2024-01-22T00:34:21.297Z,8.30
2024-01-22T00:35:23.424Z,7.50
2024-01-22T00:36:25.975Z,6.32
2024-01-22T00:37:28.105Z,9.88
2024-01-22T00:38:30.207Z,7.32
2024-01-22T00:39:32.397Z,9.52
2024-01-22T00:40:34.769Z,7.53
2024-01-22T00:41:36.879Z,5.80
2024-01-22T00:42:39.263Z,7.65
2024-01-22T00:43:41.313Z,5.63
2024-01-22T00:44:45.573Z,4.93
2024-01-22T00:45:47.864Z,5.55
2024-01-22T00:46:50.262Z,6.85
2024-01-22T00:47:52.358Z,6.53
2024-01-22T00:48:54.909Z,8.35
2024-01-22T00:49:57.037Z,6.75
2024-01-22T00:50:59.046Z,5.90
2024-01-22T00:52:01.043Z,4.70
2024-01-22T00:53:03.835Z,4.88
2024-01-22T00:54:05.963Z,5.40
2024-01-22T00:55:08.515Z,6.30
2024-01-22T00:56:11.191Z,4.35
2024-01-22T00:57:13.773Z,5.90
2024-01-22T00:58:15.816Z,5.53
2024-01-22T00:59:17.751Z,5.82
2024-01-22T01:00:19.953Z,5.35
2024-01-22T01:01:22.721Z,5.10
2024-01-22T01:02:24.824Z,5.85
2024-01-22T01:03:27.233Z,6.45
2024-01-22T01:04:29.798Z,4.65
2024-01-22T01:05:32.249Z,4.50
2024-01-22T01:06:34.417Z,4.53
2024-01-22T01:07:36.818Z,6.50
2024-01-22T01:08:38.829Z,6.35
2024-01-22T01:09:41.555Z,5.47
2024-01-22T01:10:43.643Z,6.20
2024-01-22T01:11:45.666Z,4.35
2024-01-22T01:12:47.638Z,5.80
2024-01-22T01:13:49.951Z,5.22
2024-01-22T01:14:52.019Z,6.20
2024-01-22T01:15:54.254Z,7.15
2024-01-22T01:16:56.531Z,5.70
2024-01-22T01:17:59.004Z,5.85
2024-01-22T01:19:01.196Z,5.82
2024-01-22T01:20:05.301Z,4.50
2024-01-22T01:21:07.610Z,6.78
2024-01-22T01:22:10.076Z,5.63
2024-01-22T01:23:12.094Z,3.90
2024-01-22T01:24:14.155Z,4.85
2024-01-22T01:25:16.194Z,6.85
2024-01-22T01:26:18.526Z,5.90
2024-01-22T01:27:20.756Z,5.25
2024-01-22T01:28:22.897Z,6.00
2024-01-22T01:29:25.078Z,7.53
2024-01-22T01:30:27.516Z,4.85
2024-01-22T01:31:30.001Z,6.85
2024-01-22T01:32:32.816Z,3.95
2024-01-22T01:33:35.998Z,6.55
2024-01-22T01:34:38.624Z,4.57
2024-01-22T01:35:43.921Z,6.28
2024-01-22T01:36:46.005Z,6.10
2024-01-22T01:37:48.264Z,6.10
2024-01-22T01:38:50.712Z,5.55
2024-01-22T01:39:52.875Z,5.57
2024-01-22T01:40:54.911Z,4.00
2024-01-22T01:41:56.902Z,5.75
2024-01-22T01:42:59.504Z,6.85
2024-01-22T01:44:01.549Z,6.18
2024-01-22T01:45:03.967Z,4.00
2024-01-22T01:46:07.060Z,6.63
2024-01-22T01:47:09.451Z,6.00
2024-01-22T01:48:14.030Z,8.02
2024-01-22T01:49:16.705Z,5.22
2024-01-22T01:50:19.284Z,4.82
2024-01-22T01:51:22.209Z,6.10
2024-01-22T01:52:24.325Z,5.07
2024-01-22T01:53:28.120Z,3.95
2024-01-22T01:54:30.410Z,6.00
2024-01-22T01:55:34.493Z,4.93
2024-01-22T01:56:36.709Z,4.40
2024-01-22T01:57:42.514Z,6.35
2024-01-22T01:58:46.365Z,3.90
2024-01-22T01:59:49.096Z,4.00
2024-01-22T02:00:54.266Z,6.55
2024-01-22T02:01:56.318Z,4.10
2024-01-22T02:02:59.012Z,5.15
2024-01-22T02:04:01.773Z,3.97
2024-01-22T02:05:04.425Z,4.82
2024-01-22T02:06:06.659Z,4.85
2024-01-22T02:07:08.835Z,4.35
2024-01-22T02:08:11.258Z,5.05
2024-01-22T02:09:13.427Z,6.03
2024-01-22T02:10:15.609Z,4.30
2024-01-22T02:11:20.814Z,5.03
2024-01-22T02:12:23.218Z,5.03
2024-01-22T02:13:27.312Z,4.47
2024-01-22T02:14:29.426Z,4.65
2024-01-22T02:15:31.826Z,4.10
2024-01-22T02:16:34.405Z,3.78
2024-01-22T02:17:36.621Z,5.68
2024-01-22T02:18:38.955Z,3.92
2024-01-22T02:19:41.131Z,3.53
2024-01-22T02:20:43.634Z,4.57
2024-01-22T02:21:45.640Z,4.25
2024-01-22T02:22:47.766Z,2.38
2024-01-22T02:23:50.004Z,5.70
2024-01-22T02:24:52.452Z,3.45
2024-01-22T02:25:54.491Z,3.92
2024-01-22T02:26:56.553Z,3.15
2024-01-22T02:27:58.663Z,4.55
2024-01-22T02:29:01.107Z,3.95
2024-01-22T02:30:03.215Z,4.10
2024-01-22T02:31:05.376Z,2.35
2024-01-22T02:32:07.616Z,2.30
2024-01-22T02:33:10.150Z,3.85
2024-01-22T02:34:13.156Z,3.85
2024-01-22T02:36:17.209Z,4.05
2024-01-22T02:37:19.636Z,4.88
2024-01-22T02:38:21.993Z,3.35
2024-01-22T02:39:24.078Z,6.60
2024-01-22T02:40:26.378Z,3.40
2024-01-22T02:41:28.418Z,3.20
2024-01-22T02:42:30.766Z,7.07
2024-01-22T02:43:32.828Z,8.13
2024-01-22T02:44:37.491Z,5.32
2024-01-22T02:45:39.839Z,6.32
2024-01-22T02:46:42.418Z,3.05
2024-01-22T02:47:44.484Z,5.57
2024-01-22T02:48:46.706Z,5.97
2024-01-22T02:49:48.935Z,6.53
2024-01-22T02:50:51.446Z,9.32
2024-01-22T02:51:53.493Z,6.35
2024-01-22T02:52:55.441Z,8.25
2024-01-22T02:53:57.682Z,6.97
2024-01-22T02:55:00.236Z,7.65
2024-01-22T02:56:02.251Z,4.85
2024-01-22T02:57:04.683Z,9.10
2024-01-22T02:58:06.841Z,8.27
2024-01-22T02:59:09.485Z,10.15
2024-01-22T03:00:11.766Z,5.97
2024-01-22T03:01:13.842Z,7.13
2024-01-22T03:02:16.042Z,6.10
2024-01-22T03:03:18.746Z,7.15
2024-01-22T03:04:20.825Z,10.70
2024-01-22T03:05:24.356Z,6.82
2024-01-22T03:06:26.500Z,7.05
2024-01-22T03:07:29.005Z,7.00
2024-01-22T03:08:30.986Z,7.07
2024-01-22T03:09:33.027Z,7.57
2024-01-22T03:10:35.068Z,5.85
2024-01-22T03:11:37.538Z,8.52
2024-01-22T03:12:39.672Z,6.30
2024-01-22T03:13:41.855Z,5.90
2024-01-22T03:14:44.012Z,5.65
2024-01-22T03:15:46.427Z,7.88
2024-01-22T03:16:48.516Z,7.22
2024-01-22T03:17:50.649Z,5.63
2024-01-22T03:18:54.094Z,4.68
2024-01-22T03:19:56.583Z,5.45
2024-01-22T03:20:58.759Z,8.32
2024-01-22T03:22:00.942Z,8.10
2024-01-22T03:23:02.941Z,7.07
2024-01-22T03:24:05.445Z,7.60
2024-01-22T03:25:07.751Z,6.88
2024-01-22T03:26:09.797Z,5.95
2024-01-22T03:27:11.889Z,6.13
2024-01-22T03:28:14.318Z,3.53
2024-01-22T03:29:16.374Z,4.47
2024-01-22T03:30:18.631Z,4.57
2024-01-22T03:31:28.654Z,7.53
2024-01-22T03:32:31.139Z,5.88
2024-01-22T03:33:33.454Z,6.28
2024-01-22T03:34:35.672Z,5.90
2024-01-22T03:35:37.795Z,4.53
2024-01-22T03:36:40.250Z,4.60
2024-01-22T03:37:42.488Z,5.97
2024-01-22T03:38:45.557Z,3.80
2024-01-22T03:40:49.798Z,11.30
2024-01-22T03:41:52.142Z,7.72
2024-01-22T03:42:54.250Z,10.02
2024-01-22T03:43:56.546Z,4.65
2024-01-22T03:44:58.925Z,6.32
2024-01-22T03:46:00.863Z,5.88
2024-01-22T03:47:02.842Z,5.93
2024-01-22T03:48:05.486Z,5.35
2024-01-22T03:50:11.677Z,5.82
2024-01-22T03:51:13.969Z,3.25
2024-01-22T03:52:16.342Z,5.65
2024-01-22T03:53:18.914Z,5.32
2024-01-22T03:54:21.017Z,5.50
2024-01-22T03:55:23.101Z,4.25
2024-01-22T03:56:25.298Z,3.97
2024-01-22T03:57:27.709Z,4.00
2024-01-22T03:58:29.739Z,4.38
2024-01-22T03:59:31.766Z,6.80
2024-01-22T04:00:33.831Z,4.10
2024-01-22T04:01:36.245Z,4.55
2024-01-22T04:02:38.341Z,3.58
2024-01-22T04:03:40.573Z,4.93
2024-01-22T04:04:45.481Z,4.82
2024-01-22T04:05:48.525Z,4.07
2024-01-22T04:06:50.615Z,2.78
2024-01-22T04:07:52.691Z,4.03
2024-01-22T04:08:54.767Z,4.05
2024-01-22T04:09:57.104Z,5.28
2024-01-22T04:10:59.110Z,5.05
2024-01-22T04:12:01.471Z,5.07
2024-01-22T04:13:03.638Z,3.38
2024-01-22T04:14:06.015Z,2.45
2024-01-22T04:15:08.532Z,7.93
2024-01-22T04:16:17.564Z,2.90
2024-01-22T04:17:19.676Z,6.00
2024-01-22T04:18:22.252Z,8.52
2024-01-22T04:19:24.450Z,7.47
2024-01-22T04:20:26.553Z,17.90
2024-01-22T04:21:29.285Z,24.80
2024-01-22T04:22:31.660Z,91.00
2024-01-22T04:23:36.120Z,49.03
2024-01-22T04:24:39.192Z,18.10
2024-01-22T04:26:43.656Z,52.38
2024-01-22T04:27:45.733Z,167.57
2024-01-22T04:28:48.276Z,114.88
2024-01-22T04:29:50.428Z,40.03
2024-01-22T04:30:52.814Z,17.75
2024-01-22T04:31:54.772Z,8.23
2024-01-22T04:32:56.894Z,2.90
2024-01-22T04:33:59.040Z,7.75
2024-01-22T04:35:02.371Z,3.78
2024-01-22T04:36:05.166Z,4.25
2024-01-22T04:37:07.448Z,5.90
2024-01-22T04:38:10.120Z,4.55
2024-01-22T04:39:12.672Z,3.85
2024-01-22T04:40:16.443Z,3.63
2024-01-22T04:41:18.653Z,16.85
2024-01-22T04:42:21.767Z,57.80
2024-01-22T04:43:24.751Z,43.22
2024-01-22T04:44:30.313Z,75.97
2024-01-22T04:45:32.381Z,54.47
2024-01-22T04:46:34.699Z,48.60
2024-01-22T04:47:37.840Z,40.22
2024-01-22T04:48:40.078Z,41.75
2024-01-22T04:49:42.389Z,39.50
2024-01-22T04:50:44.631Z,40.33
2024-01-22T04:51:47.006Z,24.58
2024-01-22T04:52:49.131Z,16.85
2024-01-22T04:53:51.227Z,14.27
2024-01-22T04:54:57.025Z,9.35
2024-01-22T04:56:02.233Z,7.40
2024-01-22T04:57:04.329Z,5.45
2024-01-22T04:58:06.365Z,5.22
2024-01-22T04:59:09.577Z,3.90
2024-01-22T05:00:12.508Z,3.10
2024-01-22T05:01:14.851Z,5.75
2024-01-22T05:02:18.538Z,4.25
2024-01-22T05:03:20.582Z,3.53
2024-01-22T05:04:23.079Z,4.38
2024-01-22T05:05:25.203Z,4.63
2024-01-22T05:06:27.400Z,6.93
2024-01-22T05:07:29.763Z,3.03
2024-01-22T05:08:32.077Z,3.88
2024-01-22T05:09:34.103Z,5.40
2024-01-22T05:10:36.166Z,4.70
2024-01-22T05:11:38.357Z,4.28
2024-01-22T05:12:41.693Z,5.28
2024-01-22T05:13:54.696Z,9.55
2024-01-22T05:14:56.868Z,6.25
2024-01-22T05:15:58.965Z,5.78
2024-01-22T05:17:01.289Z,6.93
2024-01-22T05:18:03.402Z,6.88
2024-01-22T05:19:05.726Z,4.75
2024-01-22T05:20:08.417Z,4.90
2024-01-22T05:21:11.574Z,6.72
2024-01-22T05:22:13.610Z,2.85
2024-01-22T05:23:15.748Z,3.45
2024-01-22T05:24:19.007Z,3.00
2024-01-22T05:25:21.592Z,2.17
2024-01-22T05:26:23.630Z,4.30
2024-01-22T05:27:26.230Z,2.75
2024-01-22T05:28:28.296Z,3.58
2024-01-22T05:29:30.819Z,3.50
2024-01-22T05:30:33.217Z,5.28
2024-01-22T05:31:35.323Z,5.40
2024-01-22T05:32:38.228Z,5.20
2024-01-22T05:33:40.900Z,4.47
2024-01-22T05:34:43.251Z,4.32
2024-01-22T05:35:45.996Z,11.10
2024-01-22T05:36:48.768Z,35.63
2024-01-22T05:37:51.770Z,43.97
2024-01-22T05:38:54.109Z,24.73
2024-01-22T05:39:56.332Z,20.52
2024-01-22T05:40:58.905Z,11.05
2024-01-22T05:42:01.354Z,12.23
2024-01-22T05:43:03.462Z,12.80
2024-01-22T05:44:05.683Z,11.70
2024-01-22T05:45:08.496Z,12.13
2024-01-22T05:47:13.319Z,12.43
2024-01-22T05:48:15.449Z,28.60
2024-01-22T05:49:17.789Z,61.67
2024-01-22T05:50:20.267Z,101.22
2024-01-22T05:51:22.276Z,139.32
2024-01-22T05:52:24.307Z,101.50
2024-01-22T05:53:26.248Z,55.58
2024-01-22T05:54:28.570Z,30.33
2024-01-22T05:55:30.578Z,15.02
2024-01-22T05:56:34.148Z,8.60
2024-01-22T05:57:36.253Z,7.05
2024-01-22T05:58:38.673Z,7.03
2024-01-22T05:59:41.403Z,5.07
2024-01-22T06:00:43.494Z,5.38
2024-01-22T06:01:45.580Z,5.78
2024-01-22T06:02:48.543Z,8.43
2024-01-22T06:03:51.100Z,14.23
2024-01-22T06:04:53.160Z,11.38
2024-01-22T06:05:55.366Z,10.18
2024-01-22T06:06:58.401Z,6.88
2024-01-22T06:08:01.348Z,4.68
2024-01-22T06:09:03.698Z,8.15
2024-01-22T06:10:08.951Z,8.27
2024-01-22T06:11:12.423Z,6.63
2024-01-22T06:12:14.491Z,6.07
2024-01-22T06:13:16.758Z,5.10
2024-01-22T06:14:18.781Z,6.22
2024-01-22T06:15:21.369Z,6.80
2024-01-22T06:16:23.539Z,5.05
2024-01-22T06:17:26.046Z,5.55
2024-01-22T06:18:28.201Z,5.22
2024-01-22T06:19:30.616Z,6.97
2024-01-22T06:20:36.209Z,8.20
2024-01-22T06:21:39.503Z,7.68
2024-01-22T06:22:41.586Z,6.55
2024-01-22T06:23:44.034Z,8.25
2024-01-22T06:24:46.281Z,8.75
2024-01-22T06:25:49.044Z,5.97
2024-01-22T06:26:51.090Z,12.48
2024-01-22T06:27:53.471Z,5.20
2024-01-22T06:28:57.750Z,17.63
2024-01-22T06:30:01.363Z,32.72
2024-01-22T06:31:04.384Z,11.93
2024-01-22T06:32:08.762Z,7.85
2024-01-22T06:33:11.171Z,5.18
2024-01-22T06:34:13.470Z,8.20
2024-01-22T06:35:15.841Z,6.82
2024-01-22T06:36:18.487Z,12.95
2024-01-22T06:37:27.978Z,8.25
2024-01-22T06:39:32.338Z,8.23
2024-01-22T06:40:35.010Z,7.03
2024-01-22T06:41:37.269Z,5.95
2024-01-22T06:42:39.946Z,6.80
2024-01-22T06:44:44.685Z,11.63
2024-01-22T06:45:47.284Z,10.23
2024-01-22T06:46:49.708Z,12.63
2024-01-22T06:47:51.786Z,8.05
2024-01-22T06:48:54.711Z,7.28
2024-01-22T06:49:57.238Z,6.65
2024-01-22T06:50:59.253Z,10.25
2024-01-22T06:52:01.869Z,8.40
2024-01-22T06:53:05.386Z,11.00
2024-01-22T06:54:08.171Z,12.38
2024-01-22T06:55:10.586Z,21.75
2024-01-22T06:56:12.567Z,22.20
2024-01-22T06:57:14.849Z,10.50
2024-01-22T06:58:18.212Z,9.25
2024-01-22T06:59:20.413Z,11.90
2024-01-22T07:00:22.952Z,8.55
2024-01-22T07:01:28.046Z,7.05
2024-01-22T07:02:30.325Z,10.80
2024-01-22T07:03:32.555Z,13.85
2024-01-22T07:04:34.776Z,7.70
2024-01-22T07:05:36.976Z,6.78
2024-01-22T07:06:39.428Z,8.93
2024-01-22T07:07:41.927Z,8.90
2024-01-22T07:08:44.068Z,7.40
2024-01-22T07:09:46.115Z,6.88
2024-01-22T07:10:50.231Z,5.68
2024-01-22T07:11:52.331Z,5.85
2024-01-22T07:12:54.704Z,6.53
2024-01-22T07:13:56.682Z,11.23
2024-01-22T07:14:59.295Z,6.25
2024-01-22T07:16:02.275Z,8.20
2024-01-22T07:18:07.022Z,4.53
2024-01-22T07:19:09.527Z,4.78
2024-01-22T07:20:21.098Z,5.07
2024-01-22T07:21:23.267Z,7.15
2024-01-22T07:22:25.491Z,8.35
2024-01-22T07:23:28.380Z,6.43
2024-01-22T07:24:30.477Z,7.80
2024-01-22T07:25:35.875Z,8.20
2024-01-22T07:26:38.397Z,4.53
2024-01-22T07:27:41.021Z,5.38
2024-01-22T07:28:42.998Z,5.85
2024-01-22T07:29:45.091Z,5.35
2024-01-22T07:30:47.507Z,3.85
2024-01-22T07:31:49.970Z,7.13
2024-01-22T07:32:52.184Z,7.63
2024-01-22T07:33:55.285Z,5.75
2024-01-22T07:34:57.408Z,7.85
2024-01-22T07:35:59.835Z,6.03
2024-01-22T07:37:02.368Z,5.57
2024-01-22T07:38:06.628Z,6.78
2024-01-22T07:39:09.358Z,6.68
2024-01-22T07:40:12.631Z,6.25
2024-01-22T07:41:15.249Z,5.82
2024-01-22T07:42:17.234Z,7.63
2024-01-22T07:43:19.188Z,8.05
2024-01-22T07:44:21.601Z,5.50
2024-01-22T07:45:23.867Z,6.85
2024-01-22T07:46:26.038Z,6.22
2024-01-22T07:47:29.119Z,12.68
2024-01-22T07:48:31.625Z,6.82
2024-01-22T07:49:33.812Z,6.28
2024-01-22T07:50:36.040Z,7.10
2024-01-22T07:51:38.349Z,8.57
2024-01-22T07:52:42.045Z,8.40
2024-01-22T07:53:44.874Z,9.95
2024-01-22T07:54:47.376Z,10.65
2024-01-22T07:55:49.388Z,12.57
2024-01-22T07:56:51.854Z,10.27
2024-01-22T07:57:54.087Z,11.18
2024-01-22T07:58:56.816Z,11.82
2024-01-22T07:59:59.369Z,10.73
2024-01-22T08:02:05.476Z,6.93
2024-01-22T08:03:07.696Z,13.57
2024-01-22T08:04:10.107Z,11.65
2024-01-22T08:05:14.984Z,17.73
2024-01-22T08:06:17.605Z,15.18
2024-01-22T08:07:21.002Z,11.88
2024-01-22T08:08:23.516Z,10.45
2024-01-22T08:09:25.912Z,9.52
2024-01-22T08:10:28.038Z,14.68
2024-01-22T08:11:30.103Z,14.05
2024-01-22T08:12:32.126Z,10.00
2024-01-22T08:13:34.656Z,8.95
2024-01-22T08:14:36.804Z,11.35
2024-01-22T08:15:39.274Z,10.13
2024-01-22T08:16:41.552Z,8.88
2024-01-22T08:17:44.823Z,10.43
2024-01-22T08:18:48.770Z,11.75
2024-01-22T08:19:51.018Z,12.52
2024-01-22T08:20:53.315Z,14.50
2024-01-22T08:21:56.165Z,11.32
2024-01-22T08:22:58.176Z,15.75
2024-01-22T08:24:00.209Z,15.23
2024-01-22T08:25:02.358Z,15.82
2024-01-22T08:26:04.894Z,11.27
2024-01-22T08:27:07.290Z,12.63
2024-01-22T08:28:09.508Z,8.43
2024-01-22T08:29:11.680Z,8.80
2024-01-22T08:30:14.892Z,6.47
2024-01-22T08:32:18.827Z,4.10
2024-01-22T08:33:21.160Z,6.32
2024-01-22T08:34:23.980Z,6.45
2024-01-22T08:35:26.273Z,5.57
2024-01-22T08:36:29.515Z,4.00
2024-01-22T08:37:32.050Z,8.13
2024-01-22T08:38:35.282Z,11.63
2024-01-22T08:39:37.337Z,7.20
2024-01-22T08:40:39.396Z,7.80
2024-01-22T08:41:41.565Z,8.25
2024-01-22T08:42:47.277Z,7.13
2024-01-22T08:43:49.303Z,6.57
2024-01-22T08:44:51.592Z,6.07
2024-01-22T08:45:53.640Z,7.13
2024-01-22T08:46:56.295Z,5.47
2024-01-22T08:47:58.401Z,7.40
2024-01-22T08:49:00.625Z,5.90
2024-01-22T08:50:02.848Z,5.95
2024-01-22T08:51:05.281Z,8.32
2024-01-22T08:52:07.288Z,10.30
2024-01-22T08:53:09.439Z,11.25
2024-01-22T08:54:11.465Z,10.40
2024-01-22T08:55:13.989Z,6.15
2024-01-22T08:56:15.933Z,10.18
2024-01-22T08:57:18.103Z,7.40
2024-01-22T08:58:20.303Z,7.10
2024-01-22T08:59:22.786Z,9.00
2024-01-22T09:00:25.797Z,5.97
2024-01-22T09:01:28.105Z,10.60
2024-01-22T09:02:30.466Z,5.85
2024-01-22T09:03:35.926Z,7.95
2024-01-22T09:04:38.302Z,4.80
2024-01-22T09:05:40.654Z,5.72
2024-01-22T09:06:42.857Z,6.50
2024-01-22T09:07:45.415Z,6.18
2024-01-22T09:08:47.558Z,7.45
2024-01-22T09:09:50.972Z,6.90
2024-01-22T09:10:53.198Z,6.65
2024-01-22T09:11:55.577Z,6.32
2024-01-22T09:12:57.705Z,10.40
2024-01-22T09:13:59.722Z,9.70
2024-01-22T09:15:02.814Z,10.82
2024-01-22T09:16:06.574Z,9.27
2024-01-22T09:17:08.962Z,11.13
2024-01-22T09:18:11.177Z,10.23
2024-01-22T09:19:13.507Z,9.70
2024-01-22T09:20:17.296Z,7.30
2024-01-22T09:21:19.589Z,7.35
2024-01-22T09:22:22.473Z,4.05
2024-01-22T09:23:24.506Z,4.57
2024-01-22T09:24:27.114Z,4.90
2024-01-22T09:25:29.164Z,5.63
2024-01-22T09:26:31.200Z,6.47
2024-01-22T09:27:33.374Z,5.50
2024-01-22T09:28:35.762Z,4.70
2024-01-22T09:29:37.900Z,7.68
2024-01-22T09:30:40.339Z,4.22
2024-01-22T09:31:42.642Z,10.82
2024-01-22T09:32:45.074Z,5.70
2024-01-22T09:33:51.580Z,7.20
2024-01-22T09:34:53.756Z,7.93
2024-01-22T09:35:56.739Z,6.22
2024-01-22T09:36:59.183Z,6.20
2024-01-22T09:38:02.705Z,6.93
2024-01-22T09:39:04.815Z,7.10
2024-01-22T09:40:19.507Z,9.02
2024-01-22T09:41:27.108Z,7.07
2024-01-22T09:42:30.257Z,6.88
2024-01-22T09:43:32.720Z,7.20
2024-01-22T09:44:35.514Z,5.82
2024-01-22T09:45:38.372Z,6.97
2024-01-22T09:46:41.552Z,7.80
2024-01-22T09:47:45.069Z,8.27
2024-01-22T09:48:51.486Z,6.65
2024-01-22T09:49:53.995Z,11.85
2024-01-22T09:50:56.384Z,5.45
2024-01-22T09:51:58.397Z,6.40
2024-01-22T09:53:11.777Z,7.30
2024-01-22T09:54:21.007Z,8.40
2024-01-22T09:56:29.185Z,6.05
2024-01-22T09:57:32.431Z,7.63
2024-01-22T09:58:39.707Z,7.03
2024-01-22T09:59:44.046Z,7.35
2024-01-22T10:00:48.472Z,7.65
2024-01-22T10:01:52.066Z,8.93
2024-01-22T10:02:54.887Z,7.03
2024-01-22T10:03:58.505Z,6.15
2024-01-22T10:05:03.205Z,9.63
2024-01-22T10:06:07.065Z,6.13
2024-01-22T10:07:12.753Z,7.03
2024-01-22T10:08:14.781Z,11.40
2024-01-22T10:09:18.594Z,8.10
2024-01-22T10:10:22.781Z,8.23
2024-01-22T10:11:26.664Z,7.57
2024-01-22T10:12:29.159Z,8.00
2024-01-22T10:13:31.262Z,6.55
2024-01-22T10:14:39.186Z,6.20
2024-01-22T10:15:41.658Z,7.30
2024-01-22T10:16:43.691Z,5.53
2024-01-22T10:17:45.867Z,7.50
2024-01-22T10:19:08.802Z,6.45
2024-01-22T10:20:11.843Z,5.35
2024-01-22T10:21:13.824Z,7.88
2024-01-22T10:22:22.960Z,6.60
2024-01-22T10:23:25.272Z,7.97
2024-01-22T10:24:27.760Z,6.75
2024-01-22T10:25:31.133Z,6.75
2024-01-22T10:26:34.456Z,6.72
2024-01-22T10:27:36.542Z,7.43
2024-01-22T10:28:38.881Z,6.13
2024-01-22T10:29:41.277Z,4.30
2024-01-22T10:30:44.219Z,5.75
2024-01-22T10:33:16.261Z,4.13
2024-01-22T10:34:18.467Z,5.90
2024-01-22T10:35:24.130Z,5.22
2024-01-22T10:36:26.321Z,5.25
2024-01-22T10:37:29.021Z,6.95
2024-01-22T10:38:31.120Z,6.10
2024-01-22T10:39:34.037Z,6.88
2024-01-22T10:41:41.703Z,6.72
2024-01-22T10:42:45.790Z,7.47
2024-01-22T10:43:48.506Z,6.57
2024-01-22T10:44:51.622Z,6.28
2024-01-22T10:45:56.071Z,7.53
2024-01-22T10:46:58.480Z,6.35
2024-01-22T10:48:06.532Z,4.53
2024-01-22T10:49:15.092Z,5.40
2024-01-22T10:50:18.573Z,7.40
2024-01-22T10:51:22.662Z,6.93
2024-01-22T10:52:26.200Z,6.07
2024-01-22T10:53:28.720Z,5.97
2024-01-22T10:55:34.376Z,6.30
2024-01-22T10:56:39.293Z,5.53
2024-01-22T10:57:42.972Z,6.70
2024-01-22T10:58:49.029Z,6.32
2024-01-22T10:59:53.501Z,6.15
2024-01-22T11:01:01.702Z,15.38
2024-01-22T11:02:06.638Z,6.57
2024-01-22T11:03:10.946Z,5.97
2024-01-22T11:04:15.446Z,7.55
2024-01-22T11:05:19.809Z,7.35
2024-01-22T11:06:23.702Z,7.68
2024-01-22T11:07:30.016Z,6.63
2024-01-22T11:08:35.387Z,7.70
2024-01-22T11:09:39.455Z,7.85
2024-01-22T11:10:45.159Z,6.03
2024-01-22T11:11:51.843Z,7.80
2024-01-22T11:12:55.927Z,6.57
2024-01-22T11:14:03.213Z,5.88
2024-01-22T11:15:06.401Z,4.78
2024-01-22T11:16:09.594Z,8.52
2024-01-22T11:17:12.276Z,6.93
2024-01-22T11:18:14.697Z,5.82
2024-01-22T11:19:23.684Z,7.45
2024-01-22T11:20:26.341Z,8.80
2024-01-22T11:21:43.617Z,7.53
2024-01-22T11:23:09.763Z,6.05
2024-01-22T11:24:16.116Z,5.75
2024-01-22T11:25:18.429Z,6.90
2024-01-22T11:26:20.471Z,7.68
2024-01-22T11:27:23.119Z,5.90
2024-01-22T11:29:29.699Z,6.43
2024-01-22T11:30:32.077Z,6.30
2024-01-22T11:31:36.693Z,7.75
2024-01-22T11:32:43.202Z,6.10
2024-01-22T11:33:52.372Z,5.78
2024-01-22T11:34:59.620Z,5.05
2024-01-22T11:36:05.787Z,9.20
2024-01-22T11:37:09.381Z,8.13
2024-01-22T11:38:12.828Z,6.82
2024-01-22T11:39:36.567Z,6.45
2024-01-22T11:40:54.316Z,8.95
2024-01-22T11:41:56.944Z,4.38
2024-01-22T11:43:00.192Z,6.40
2024-01-22T11:44:03.182Z,7.18
2024-01-22T11:45:12.460Z,7.15
2024-01-22T11:47:21.808Z,5.90
2024-01-22T11:48:25.966Z,5.63
2024-01-22T11:49:28.282Z,7.15
2024-01-22T11:50:31.007Z,7.43
2024-01-22T11:51:33.207Z,6.68
2024-01-22T11:52:37.786Z,4.85
2024-01-22T11:53:57.967Z,9.32
2024-01-22T11:55:05.301Z,9.45
2024-01-22T11:56:07.911Z,6.50
2024-01-22T11:57:14.425Z,7.28
2024-01-22T11:58:17.060Z,5.40
2024-01-22T11:59:19.570Z,5.97
2024-01-22T12:00:23.608Z,4.60
2024-01-22T12:01:26.165Z,6.10
2024-01-22T12:02:28.407Z,6.65
2024-01-22T12:03:31.233Z,7.20
2024-01-22T12:05:35.542Z,6.10
2024-01-22T12:06:53.099Z,5.50
2024-01-22T12:07:57.191Z,6.63
2024-01-22T12:09:00.963Z,5.13
2024-01-22T12:10:05.560Z,6.30
2024-01-22T12:11:07.625Z,6.03
2024-01-22T12:12:09.743Z,4.90
2024-01-22T12:14:15.480Z,3.50
2024-01-22T12:15:17.922Z,6.05
2024-01-22T12:16:20.938Z,5.85
2024-01-22T12:17:24.012Z,6.35
2024-01-22T12:18:26.801Z,5.28
2024-01-22T12:20:31.847Z,6.78
2024-01-22T12:21:34.518Z,6.65
2024-01-22T12:22:37.206Z,5.70
2024-01-22T12:23:40.180Z,6.47
2024-01-22T12:24:42.192Z,5.57
2024-01-22T12:25:46.797Z,4.90
2024-01-22T12:26:53.391Z,9.30
2024-01-22T12:28:14.805Z,5.10
2024-01-22T12:29:24.347Z,5.20
2024-01-22T12:30:26.837Z,7.75
2024-01-22T12:31:29.139Z,4.30
2024-01-22T12:32:31.273Z,5.93
2024-01-22T12:33:35.305Z,4.97
2024-01-22T12:34:37.956Z,6.10
2024-01-22T12:35:44.650Z,4.05
2024-01-22T12:36:47.753Z,6.20
2024-01-22T12:37:51.227Z,4.70
2024-01-22T12:38:55.102Z,4.57
2024-01-22T12:40:17.915Z,7.28
2024-01-22T12:41:22.396Z,5.95
2024-01-22T12:42:24.999Z,6.55
2024-01-22T12:43:27.964Z,5.30
2024-01-22T12:44:30.475Z,4.88
2024-01-22T12:45:32.693Z,5.05
2024-01-22T12:46:35.211Z,4.85
2024-01-22T12:47:37.521Z,6.55
2024-01-22T12:48:41.255Z,4.55
2024-01-22T12:49:44.744Z,6.47
2024-01-22T12:50:47.320Z,5.53
2024-01-22T12:51:49.659Z,6.72
2024-01-22T12:52:51.729Z,4.60
2024-01-22T12:53:53.992Z,4.82
2024-01-22T12:54:56.588Z,6.55
2024-01-22T12:55:59.201Z,4.85
2024-01-22T12:57:01.313Z,4.78
2024-01-22T12:58:03.397Z,6.40
2024-01-22T12:59:06.120Z,3.60
2024-01-22T13:00:10.189Z,5.00
2024-01-22T13:01:12.638Z,4.15
2024-01-22T13:02:15.591Z,5.43
2024-01-22T13:03:18.455Z,6.00
2024-01-22T13:04:20.587Z,6.18
2024-01-22T13:05:22.777Z,4.57
2024-01-22T13:06:24.840Z,5.75
2024-01-22T13:07:28.770Z,7.10
2024-01-22T13:08:33.210Z,5.35
2024-01-22T13:09:36.959Z,5.03
2024-01-22T13:10:39.077Z,5.25
2024-01-22T13:11:41.488Z,6.00
2024-01-22T13:12:43.785Z,8.05
2024-01-22T13:13:45.968Z,8.13
2024-01-22T13:14:48.394Z,6.03
2024-01-22T13:15:58.796Z,8.63
2024-01-22T13:17:13.010Z,5.20
2024-01-22T13:18:15.153Z,7.15
2024-01-22T13:19:17.658Z,5.35
2024-01-22T13:20:19.891Z,6.35
2024-01-22T13:21:22.271Z,4.65
2024-01-22T13:22:24.491Z,7.28
2024-01-22T13:23:27.198Z,6.70
2024-01-22T13:24:33.782Z,6.97
2024-01-22T13:25:38.408Z,5.28
2024-01-22T13:26:41.292Z,4.97
2024-01-22T13:28:47.460Z,5.47
2024-01-22T13:29:50.220Z,5.35
2024-01-22T13:30:52.614Z,6.85
2024-01-22T13:31:56.982Z,6.45
2024-01-22T13:33:00.463Z,6.13
2024-01-22T13:34:02.611Z,7.47
2024-01-22T13:35:06.459Z,5.93
2024-01-22T13:36:09.381Z,4.88
2024-01-22T13:37:11.998Z,4.28
2024-01-22T13:38:14.040Z,5.53
2024-01-22T13:39:16.194Z,4.60
2024-01-22T13:40:18.690Z,6.90
2024-01-22T13:41:22.211Z,6.10
2024-01-22T13:42:24.525Z,6.25
2024-01-22T13:43:26.777Z,11.45
2024-01-22T13:44:29.147Z,7.15
2024-01-22T13:45:31.691Z,10.00
2024-01-22T13:46:34.068Z,7.28
2024-01-22T13:47:38.121Z,6.93
2024-01-22T13:48:45.695Z,5.57
2024-01-22T13:49:50.084Z,6.13
2024-01-22T13:50:54.989Z,7.65
2024-01-22T13:51:59.516Z,6.97
2024-01-22T13:53:06.436Z,7.50
2024-01-22T13:54:10.324Z,7.93
2024-01-22T13:55:12.434Z,6.95
2024-01-22T13:56:15.574Z,6.70
2024-01-22T13:57:18.898Z,6.18
2024-01-22T13:58:21.505Z,5.32
2024-01-22T13:59:23.819Z,6.53
2024-01-22T14:00:26.841Z,6.10
2024-01-22T14:01:29.282Z,6.97
2024-01-22T14:02:31.552Z,6.10
2024-01-22T14:03:33.584Z,9.80
2024-01-22T14:04:35.691Z,7.05
2024-01-22T14:05:38.180Z,7.53
2024-01-22T14:06:40.423Z,6.22
2024-01-22T14:08:45.821Z,6.25
2024-01-22T14:09:50.297Z,4.90
2024-01-22T14:10:54.314Z,6.80
2024-01-22T14:11:56.693Z,5.40
2024-01-22T14:12:58.988Z,7.30
2024-01-22T14:14:02.429Z,7.50
2024-01-22T14:15:04.892Z,6.65
2024-01-22T14:16:09.999Z,8.20
2024-01-22T14:17:13.727Z,8.15
2024-01-22T14:18:17.008Z,8.07
2024-01-22T14:19:19.943Z,6.03